Time;durP1;ratioP1;P1;durP2;ratioP2;P2;SDS_P1;SDS_P2;PMS_P1;PMS_P2;Temp;Humidity;BMP_temperature;BMP_pressure;BME280_temperature;BME280_humidity;BME280_pressure;Samples;Min_cycle;Max_cycle;Signal;HPM_P1;HPM_P2
2023/08/29 00:00:41;;;;;;;;;;;;;;;;;;4920605;29;19978;-81
2023/08/29 00:03:07;;;;;;;;;;;;;;;;;;4922358;29;19934;-79
2023/08/29 00:05:33;;;;;;;;;;;;;;;;;;4907463;29;20347;-81
2023/08/29 00:07:59;;;;;;;;;;;;;;;;;;4906174;29;20029;-81
2023/08/29 00:10:25;;;;;;;;;;;;;;;;;;4906731;29;20381;-81
2023/08/29 00:12:51;;;;;;;;;;;;;;;;;;4921992;29;20438;-79
2023/08/29 00:15:17;;;;;;;;;;;;;;;;;;4921931;29;20410;-81
2023/08/29 00:17:44;;;;;;;;;;;;;;;;;;4925240;29;19934;-82
2023/08/29 00:20:10;;;;;;;;;;;;;;;;;;4926515;29;19935;-82
2023/08/29 00:22:36;;;;;;;;;;;;;;;;;;4910868;29;19937;-81
2023/08/29 00:25:02;;;;;;;;;;;;;;;;;;4926352;29;19931;-82
2023/08/29 00:27:28;;;;;;;;;;;;;;;;;;4909949;29;20272;-81
2023/08/29 00:29:53;;;;;;;;;;;;;;;;;;4925809;29;19962;-81
2023/08/29 00:32:19;;;;;;;;;;;;;;;;;;4909640;29;19986;-81
2023/08/29 00:34:45;;;;;;;;;;;;;;;;;;4907976;29;19926;-79
2023/08/29 00:37:11;;;;;;;;;;;;;;;;;;4928426;29;20025;-79
2023/08/29 00:39:37;;;;;;;;;;;;;;;;;;4907016;29;19938;-79
2023/08/29 00:42:03;;;;;;;;;;;;;;;;;;4906165;29;20492;-80
2023/08/29 00:44:29;;;;;;;;;;;;;;;;;;4927145;29;19930;-80
2023/08/29 00:46:55;;;;;;;;;;;;;;;;;;4908796;29;20088;-77
2023/08/29 00:49:21;;;;;;;;;;;;;;;;;;4923414;29;20858;-78
2023/08/29 00:51:46;;;;;;;;;;;;;;;;;;4906097;29;19946;-81
2023/08/29 00:54:12;;;;;;;;;;;;;;;;;;4907734;29;19927;-80
2023/08/29 00:56:38;;;;;;;;;;;;;;;;;;4909348;29;19938;-81
2023/08/29 00:59:04;;;;;;;;;;;;;;;;;;4906964;29;19971;-82
2023/08/29 01:01:30;;;;;;;;;;;;;;;;;;4924686;29;20326;-80
2023/08/29 01:03:56;;;;;;;;;;;;;;;;;;4909148;29;19931;-81
2023/08/29 01:06:22;;;;;;;;;;;;;;;;;;4929727;29;19927;-81
2023/08/29 01:08:48;;;;;;;;;;;;;;;;;;4926128;29;19950;-81
2023/08/29 01:11:14;;;;;;;;;;;;;;;;;;4909320;29;19934;-80
2023/08/29 01:13:39;;;;;;;;;;;;;;;;;;4909185;29;19934;-82
2023/08/29 01:16:05;;;;;;;;;;;;;;;;;;4906102;29;20869;-81
2023/08/29 01:18:31;;;;;;;;;;;;;;;;;;4907526;29;19941;-80
2023/08/29 01:20:57;;;;;;;;;;;;;;;;;;4905390;29;19923;-79
2023/08/29 01:23:23;;;;;;;;;;;;;;;;;;4911082;29;19974;-79
2023/08/29 01:25:49;;;;;;;;;;;;;;;;;;4908551;29;20014;-78
2023/08/29 01:28:15;;;;;;;;;;;;;;;;;;4908953;29;19938;-79
2023/08/29 01:30:42;;;;;;;;;;;;;;;;;;4905825;29;19950;-80
2023/08/29 01:33:09;;;;;;;;;;;;;;;;;;4924148;29;19935;-80
2023/08/29 01:35:35;;;;;;;;;;;;;;;;;;4907661;29;19946;-80
2023/08/29 01:38:00;;;;;;;;;;;;;;;;;;4909030;29;19935;-80
2023/08/29 01:40:26;;;;;;;;;;;;;;;;;;4923610;29;19930;-79
2023/08/29 01:42:52;;;;;;;;;;;;;;;;;;4904866;29;19938;-79
2023/08/29 01:45:18;;;;;;;;;;;;;;;;;;4924367;29;19989;-80
2023/08/29 01:47:44;;;;;;;;;;;;;;;;;;4907635;29;20672;-82
2023/08/29 01:50:10;;;;;;;;;;;;;;;;;;4905558;29;19931;-79
2023/08/29 01:52:36;;;;;;;;;;;;;;;;;;4926074;29;20021;-79
2023/08/29 01:55:02;;;;;;;;;;;;;;;;;;4925147;29;19937;-80
2023/08/29 01:57:28;;;;;;;;;;;;;;;;;;4926491;29;19935;-80
2023/08/29 01:59:54;;;;;;;;;;;;;;;;;;4922755;29;20026;-80
2023/08/29 02:02:20;;;;;;;;;;;;;;;;;;4926943;29;20383;-80
2023/08/29 02:04:46;;;;;;;;;;;;;;;;;;4920992;29;19935;-81
2023/08/29 02:07:12;;;;;;;;;;;;;;;;;;4909836;29;20547;-78
2023/08/29 02:09:37;;;;;;;;;;;;;;;;;;4905856;29;19947;-81
2023/08/29 02:12:03;;;;;;;;;;;;;;;;;;4894052;29;19938;-80
2023/08/29 02:14:29;;;;;;;;;;;;;;;;;;4906626;29;19927;-80
2023/08/29 02:16:55;;;;;;;;;;;;;;;;;;4904945;29;20425;-80
2023/08/29 02:19:21;;;;;;;;;;;;;;;;;;4909018;29;19931;-79
2023/08/29 02:21:47;;;;;;;;;;;;;;;;;;4906345;29;19989;-79
2023/08/29 02:24:13;;;;;;;;;;;;;;;;;;4905941;29;19937;-79
2023/08/29 02:26:39;;;;;;;;;;;;;;;;;;4906424;29;20056;-78
2023/08/29 02:29:05;;;;;;;;;;;;;;;;;;4923371;29;19935;-79
2023/08/29 02:31:31;;;;;;;;;;;;;;;;;;4922530;29;19934;-78
2023/08/29 02:33:56;;;;;;;;;;;;;;;;;;4892764;29;19934;-79
2023/08/29 02:36:23;;;;;;;;;;;;;;;;;;4908060;29;19927;-80
2023/08/29 02:38:49;;;;;;;;;;;;;;;;;;4907174;29;20692;-80
2023/08/29 02:41:15;;;;;;;;;;;;;;;;;;4906217;29;19985;-80
2023/08/29 02:43:40;;;;;;;;;;;;;;;;;;4920580;29;19923;-79
2023/08/29 02:46:07;;;;;;;;;;;;;;;;;;4904682;29;19962;-79
2023/08/29 02:48:33;;;;;;;;;;;;;;;;;;4906277;29;20506;-78
2023/08/29 02:50:58;;;;;;;;;;;;;;;;;;4921691;29;19934;-80
2023/08/29 02:53:24;;;;;;;;;;;;;;;;;;4920772;29;19930;-80
2023/08/29 02:55:51;;;;;;;;;;;;;;;;;;4907857;29;20317;-80
2023/08/29 02:58:17;;;;;;;;;;;;;;;;;;4905607;29;19931;-80
2023/08/29 03:00:43;;;;;;;;;;;;;;;;;;4904488;29;19946;-79
2023/08/29 03:03:08;;;;;;;;;;;;;;;;;;4918859;29;20427;-82
2023/08/29 03:05:34;;;;;;;;;;;;;;;;;;4902968;29;19931;-80
2023/08/29 03:08:01;;;;;;;;;;;;;;;;;;4906925;29;19989;-81
2023/08/29 03:10:27;;;;;;;;;;;;;;;;;;4903564;29;19934;-80
2023/08/29 03:12:53;;;;;;;;;;;;;;;;;;4907968;29;19939;-80
2023/08/29 03:15:18;;;;;;;;;;;;;;;;;;4905085;29;19960;-80
2023/08/29 03:17:44;;;;;;;;;;;;;;;;;;4907892;29;19992;-79
2023/08/29 03:20:10;;;;;;;;;;;;;;;;;;4922039;29;20538;-79
2023/08/29 03:22:36;;;;;;;;;;;;;;;;;;4919931;29;19937;-82
2023/08/29 03:25:02;;;;;;;;;;;;;;;;;;4898650;29;19934;-79
2023/08/29 03:27:28;;;;;;;;;;;;;;;;;;4905026;29;21008;-80
2023/08/29 03:29:54;;;;;;;;;;;;;;;;;;4903814;29;20323;-81
2023/08/29 03:32:20;;;;;;;;;;;;;;;;;;4887488;29;20405;-80
2023/08/29 03:34:46;;;;;;;;;;;;;;;;;;4887041;29;19927;-81
2023/08/29 03:37:11;;;;;;;;;;;;;;;;;;4901710;29;19931;-79
2023/08/29 03:39:37;;;;;;;;;;;;;;;;;;4904487;29;19931;-79
2023/08/29 03:42:03;;;;;;;;;;;;;;;;;;4900210;29;20018;-80
2023/08/29 03:44:29;;;;;;;;;;;;;;;;;;4902446;29;19966;-82
2023/08/29 03:46:55;;;;;;;;;;;;;;;;;;4902345;29;20343;-81
2023/08/29 03:49:21;;;;;;;;;;;;;;;;;;4904133;29;20888;-81
2023/08/29 03:51:47;;;;;;;;;;;;;;;;;;4902701;29;20005;-80
2023/08/29 03:54:13;;;;;;;;;;;;;;;;;;4901991;29;20039;-80
2023/08/29 03:56:39;;;;;;;;;;;;;;;;;;4903366;29;19934;-80
2023/08/29 03:59:05;;;;;;;;;;;;;;;;;;4901797;29;19931;-79
2023/08/29 04:01:31;;;;;;;;;;;;;;;;;;4901555;29;19939;-80
2023/08/29 04:03:57;;;;;;;;;;;;;;;;;;4900013;29;20348;-81
2023/08/29 04:06:23;;;;;;;;;;;;;;;;;;4899169;29;19931;-80
2023/08/29 04:08:48;;;;;;;;;;;;;;;;;;4894439;29;20519;-81
2023/08/29 04:11:14;;;;;;;;;;;;;;;;;;4900170;29;20034;-80
2023/08/29 04:13:40;;;;;;;;;;;;;;;;;;4914373;29;19932;-80
2023/08/29 04:16:06;;;;;;;;;;;;;;;;;;4901012;29;19962;-79
2023/08/29 04:18:32;;;;;;;;;;;;;;;;;;4896239;29;19931;-80
2023/08/29 04:20:59;;;;;;;;;;;;;;;;;;4900531;29;20453;-81
2023/08/29 04:23:25;;;;;;;;;;;;;;;;;;4896360;29;20380;-80
2023/08/29 04:25:51;;;;;;;;;;;;;;;;;;4901577;29;19931;-78
2023/08/29 04:28:20;;;;;;;;;;;;;;;;;;4900543;29;19931;-80
2023/08/29 04:30:46;;;;;;;;;;;;;;;;;;4901635;29;19931;-78
2023/08/29 04:33:12;;;;;;;;;;;;;;;;;;4901036;29;19931;-78
2023/08/29 04:35:38;;;;;;;;;;;;;;;;;;4903044;29;20535;-77
2023/08/29 04:38:03;;;;;;;;;;;;;;;;;;4887088;29;19927;-77
2023/08/29 04:40:29;;;;;;;;;;;;;;;;;;4904745;29;19970;-78
2023/08/29 04:42:55;;;;;;;;;;;;;;;;;;4901556;29;19931;-78
2023/08/29 04:45:23;;;;;;;;;;;;;;;;;;4903951;29;20359;-77
2023/08/29 04:47:49;;;;;;;;;;;;;;;;;;4903402;29;19930;-80
2023/08/29 04:50:15;;;;;;;;;;;;;;;;;;4901878;29;19934;-77
2023/08/29 04:52:41;;;;;;;;;;;;;;;;;;4904492;29;19932;-78
2023/08/29 04:55:07;;;;;;;;;;;;;;;;;;4901615;29;19935;-77
2023/08/29 04:57:33;;;;;;;;;;;;;;;;;;4900958;29;19931;-80
2023/08/29 05:00:00;;;;;;;;;;;;;;;;;;4881402;29;19931;-81
2023/08/29 05:02:26;;;;;;;;;;;;;;;;;;4892633;29;19931;-79
2023/08/29 05:04:52;;;;;;;;;;;;;;;;;;4899286;29;19931;-77
2023/08/29 05:07:18;;;;;;;;;;;;;;;;;;4902170;29;19931;-85
2023/08/29 05:09:58;;;;;;;;;;;;;;;;;;;;;
2023/08/29 05:12:43;;;;;;;;;;;;;;;;;;4902878;29;19934;-86
2023/08/29 05:15:55;;;;;;;;;;;;;;;;;;4900874;29;20466;-85
2023/08/29 05:18:27;;;;;;;;;;;;;;;;;;4897100;29;19985;-90
2023/08/29 05:21:09;;;;;;;;;;;;;;;;;;4884179;29;20627;-91
2023/08/29 05:33:12;;;;;;;;;;;;;;;;;;4902105;29;19931;-91
2023/08/29 05:35:38;;;;;;;;;;;;;;;;;;4900226;29;19931;-85
2023/08/29 05:38:04;;;;;;;;;;;;;;;;;;4901745;29;19931;-87
2023/08/29 05:43:34;;;;;;;;;;;;;;;;;;4901111;29;19938;-86
2023/08/29 05:46:00;;;;;;;;;;;;;;;;;;4901920;29;19932;-84
2023/08/29 05:48:38;;;;;;;;;;;;;;;;;;4903367;29;19964;-87
2023/08/29 05:51:04;;;;;;;;;;;;;;;;;;4876286;29;20803;-85
2023/08/29 05:53:36;;;;;;;;;;;;;;;;;;4898547;29;19939;-83
2023/08/29 05:56:05;;;;;;;;;;;;;;;;;;4898747;29;19938;-83
2023/08/29 05:58:31;;;;;;;;;;;;;;;;;;4890789;29;19942;-80
2023/08/29 06:00:57;;;;;;;;;;;;;;;;;;4902342;29;19931;-84
2023/08/29 06:03:23;;;;;;;;;;;;;;;;;;4905277;29;19931;-82
2023/08/29 06:05:49;;;;;;;;;;;;;;;;;;4905206;29;19931;-83
2023/08/29 06:08:15;;;;;;;;;;;;;;;;;;4906421;29;20054;-83
2023/08/29 06:10:41;;;;;;;;;;;;;;;;;;4888995;29;19938;-83
2023/08/29 06:13:07;;;;;;;;;;;;;;;;;;4904618;29;19927;-82
2023/08/29 06:15:33;;;;;;;;;;;;;;;;;;4905797;29;20098;-82
2023/08/29 06:17:59;;;;;;;;;;;;;;;;;;4886932;29;19931;-83
2023/08/29 06:20:25;;;;;;;;;;;;;;;;;;4905857;29;19937;-82
2023/08/29 06:22:51;;;;;;;;;;;;;;;;;;4916536;29;20014;-79
2023/08/29 06:25:17;;;;;;;;;;;;;;;;;;4902009;29;20026;-81
2023/08/29 06:27:43;;;;;;;;;;;;;;;;;;4904353;29;20296;-83
2023/08/29 06:30:12;;;;;;;;;;;;;;;;;;4888083;29;19931;-83
2023/08/29 06:32:39;;;;;;;;;;;;;;;;;;4904085;29;19938;-80
2023/08/29 06:35:07;;;;;;;;;;;;;;;;;;4903719;29;19927;-81
2023/08/29 06:37:33;;;;;;;;;;;;;;;;;;4896189;29;19938;-83
2023/08/29 06:39:59;;;;;;;;;;;;;;;;;;4895497;29;19935;-81
2023/08/29 06:42:25;;;;;;;;;;;;;;;;;;4904652;29;19939;-81
2023/08/29 06:44:51;;;;;;;;;;;;;;;;;;4904095;29;19931;-81
2023/08/29 06:47:18;;;;;;;;;;;;;;;;;;4904380;29;19927;-83
2023/08/29 06:49:44;;;;;;;;;;;;;;;;;;4903755;29;19956;-83
2023/08/29 06:52:10;;;;;;;;;;;;;;;;;;4905277;29;20126;-81
2023/08/29 06:54:36;;;;;;;;;;;;;;;;;;4902123;29;19934;-82
2023/08/29 06:57:02;;;;;;;;;;;;;;;;;;4902830;29;20026;-81
2023/08/29 06:59:28;;;;;;;;;;;;;;;;;;4884373;29;19931;-83
2023/08/29 07:01:54;;;;;;;;;;;;;;;;;;4903478;29;19933;-81
2023/08/29 07:04:19;;;;;;;;;;;;;;;;;;4902150;29;20062;-83
2023/08/29 07:06:45;;;;;;;;;;;;;;;;;;4901462;29;19931;-79
2023/08/29 07:09:11;;;;;;;;;;;;;;;;;;4903071;29;20440;-82
2023/08/29 07:11:37;;;;;;;;;;;;;;;;;;4905391;29;19934;-82
2023/08/29 07:14:03;;;;;;;;;;;;;;;;;;4901264;29;20408;-84
2023/08/29 07:16:31;;;;;;;;;;;;;;;;;;4905998;29;19931;-81
2023/08/29 07:18:58;;;;;;;;;;;;;;;;;;4901077;29;19942;-82
2023/08/29 07:21:24;;;;;;;;;;;;;;;;;;4886910;29;20030;-82
2023/08/29 07:23:50;;;;;;;;;;;;;;;;;;4887433;29;20030;-82
2023/08/29 07:26:16;;;;;;;;;;;;;;;;;;4901234;29;19931;-80
2023/08/29 07:28:42;;;;;;;;;;;;;;;;;;4903486;29;19935;-82
2023/08/29 07:31:08;;;;;;;;;;;;;;;;;;4903151;29;20409;-82
2023/08/29 07:33:34;;;;;;;;;;;;;;;;;;4904198;29;19939;-82
2023/08/29 07:36:00;;;;;;;;;;;;;;;;;;4903250;29;19927;-82
2023/08/29 07:38:26;;;;;;;;;;;;;;;;;;4907685;29;19937;-81
2023/08/29 07:40:52;;;;;;;;;;;;;;;;;;4908113;29;19931;-82
2023/08/29 07:43:18;;;;;;;;;;;;;;;;;;4906416;29;19946;-82
2023/08/29 07:45:45;;;;;;;;;;;;;;;;;;4927690;29;20673;-80
2023/08/29 07:48:11;;;;;;;;;;;;;;;;;;4900145;29;19970;-83
2023/08/29 07:50:37;;;;;;;;;;;;;;;;;;4904351;29;20005;-82
2023/08/29 07:53:03;;;;;;;;;;;;;;;;;;4900943;29;19934;-83
2023/08/29 07:55:28;;;;;;;;;;;;;;;;;;4907061;29;19926;-81
2023/08/29 07:57:56;;;;;;;;;;;;;;;;;;4924261;29;20029;-82
2023/08/29 08:00:21;;;;;;;;;;;;;;;;;;4921865;29;20542;-82
2023/08/29 08:02:47;;;;;;;;;;;;;;;;;;4906896;29;19938;-82
2023/08/29 08:05:14;;;;;;;;;;;;;;;;;;4888241;29;19931;-80
2023/08/29 08:07:40;;;;;;;;;;;;;;;;;;4890751;29;19935;-80
2023/08/29 08:10:06;;;;;;;;;;;;;;;;;;4903014;29;19931;-81
2023/08/29 08:12:31;;;;;;;;;;;;;;;;;;4899526;29;20017;-81
2023/08/29 08:14:57;;;;;;;;;;;;;;;;;;4904231;29;19938;-84
2023/08/29 08:17:30;;;;;;;;;;;;;;;;;;4898845;29;19934;-83
2023/08/29 08:19:59;;;;;;;;;;;;;;;;;;4905532;29;19934;-83
2023/08/29 08:22:25;;;;;;;;;;;;;;;;;;4883117;29;19931;-82
2023/08/29 08:24:54;;;;;;;;;;;;;;;;;;4897003;29;19938;-83
2023/08/29 08:27:30;;;;;;;;;;;;;;;;;;4901642;29;20227;-82
2023/08/29 08:29:59;;;;;;;;;;;;;;;;;;4884920;29;19974;-82
2023/08/29 08:32:31;;;;;;;;;;;;;;;;;;4902244;29;19931;-83
2023/08/29 08:35:13;;;;;;;;;;;;;;;;;;4910686;29;19926;-83
2023/08/29 08:37:39;;;;;;;;;;;;;;;;;;4900213;29;20025;-83
2023/08/29 08:40:24;;;;;;;;;;;;;;;;;;4905420;29;20346;-81
2023/08/29 08:42:50;;;;;;;;;;;;;;;;;;4909499;29;20300;-82
2023/08/29 08:45:19;;;;;;;;;;;;;;;;;;4891083;29;20015;-83
2023/08/29 08:47:45;;;;;;;;;;;;;;;;;;4905260;29;19931;-83
2023/08/29 08:50:11;;;;;;;;;;;;;;;;;;4903445;29;19937;-82
2023/08/29 08:52:40;;;;;;;;;;;;;;;;;;4920884;29;19942;-83
2023/08/29 08:55:06;;;;;;;;;;;;;;;;;;4901707;29;19942;-82
2023/08/29 08:57:33;;;;;;;;;;;;;;;;;;4907930;29;19927;-83
2023/08/29 08:59:59;;;;;;;;;;;;;;;;;;4906468;29;19931;-80
2023/08/29 09:02:25;;;;;;;;;;;;;;;;;;4904246;29;20587;-82
2023/08/29 09:04:53;;;;;;;;;;;;;;;;;;4906692;29;19978;-83
2023/08/29 09:07:19;;;;;;;;;;;;;;;;;;4901124;29;19938;-83
2023/08/29 09:12:49;;;;;;;;;;;;;;;;;;4904994;29;19981;-83
2023/08/29 09:15:19;;;;;;;;;;;;;;;;;;4901884;29;19931;-82
2023/08/29 09:17:48;;;;;;;;;;;;;;;;;;4907258;29;19931;-83
2023/08/29 09:20:14;;;;;;;;;;;;;;;;;;4906953;29;20278;-82
2023/08/29 09:22:43;;;;;;;;;;;;;;;;;;4904409;29;19934;-81
2023/08/29 09:25:10;;;;;;;;;;;;;;;;;;4900874;29;19931;-84
2023/08/29 09:27:36;;;;;;;;;;;;;;;;;;4905396;29;19931;-81
2023/08/29 09:30:02;;;;;;;;;;;;;;;;;;4907238;29;19930;-81
2023/08/29 09:32:29;;;;;;;;;;;;;;;;;;4926102;29;20390;-82
2023/08/29 09:34:55;;;;;;;;;;;;;;;;;;4907148;29;19938;-83
2023/08/29 09:37:21;;;;;;;;;;;;;;;;;;4922966;29;19986;-82
2023/08/29 09:39:48;;;;;;;;;;;;;;;;;;4904162;29;20018;-82
2023/08/29 09:42:16;;;;;;;;;;;;;;;;;;4905138;29;19935;-81
2023/08/29 09:44:45;;;;;;;;;;;;;;;;;;4904254;29;19930;-82
2023/08/29 09:47:12;;;;;;;;;;;;;;;;;;4909362;29;20431;-81
2023/08/29 09:49:38;;;;;;;;;;;;;;;;;;4922875;29;19930;-82
2023/08/29 09:52:04;;;;;;;;;;;;;;;;;;4902183;29;20015;-80
2023/08/29 09:54:30;;;;;;;;;;;;;;;;;;4906049;29;19935;-80
2023/08/29 09:56:56;;;;;;;;;;;;;;;;;;4920458;29;20143;-81
2023/08/29 09:59:22;;;;;;;;;;;;;;;;;;4913810;29;20631;-80
2023/08/29 10:01:49;;;;;;;;;;;;;;;;;;4920424;29;20014;-75
2023/08/29 10:04:15;;;;;;;;;;;;;;;;;;4919088;29;19926;-77
2023/08/29 10:06:41;;;;;;;;;;;;;;;;;;4901046;29;19931;-79
2023/08/29 10:09:07;;;;;;;;;;;;;;;;;;4901018;29;20438;-80
2023/08/29 10:11:33;;;;;;;;;;;;;;;;;;4886939;29;19931;-79
2023/08/29 10:14:04;;;;;;;;;;;;;;;;;;4904992;29;19938;-78
2023/08/29 10:16:30;;;;;;;;;;;;;;;;;;4905093;29;19945;-79
2023/08/29 10:19:02;;;;;;;;;;;;;;;;;;4905869;29;19930;-78
2023/08/29 10:21:28;;;;;;;;;;;;;;;;;;4899839;29;20018;-78
2023/08/29 10:23:57;;;;;;;;;;;;;;;;;;4903445;29;19926;-78
2023/08/29 10:26:23;;;;;;;;;;;;;;;;;;4905551;29;19933;-78
2023/08/29 10:28:49;;;;;;;;;;;;;;;;;;4896354;29;19931;-76
2023/08/29 10:31:18;;;;;;;;;;;;;;;;;;4906165;29;19927;-78
2023/08/29 10:33:45;;;;;;;;;;;;;;;;;;4900626;29;19937;-78
2023/08/29 10:36:10;;;;;;;;;;;;;;;;;;4902020;29;19935;-75
2023/08/29 10:38:37;;;;;;;;;;;;;;;;;;4903746;29;19931;-77
2023/08/29 10:41:04;;;;;;;;;;;;;;;;;;4920448;29;20462;-78
2023/08/29 10:43:30;;;;;;;;;;;;;;;;;;4906039;29;19938;-75
2023/08/29 10:45:56;;;;;;;;;;;;;;;;;;4903771;29;19938;-76
2023/08/29 10:48:24;;;;;;;;;;;;;;;;;;4901799;29;19937;-77
2023/08/29 10:50:49;;;;;;;;;;;;;;;;;;4905292;29;19934;-77
2023/08/29 10:53:16;;;;;;;;;;;;;;;;;;4903233;29;20466;-86
2023/08/29 10:55:42;;;;;;;;;;;;;;;;;;4896097;29;19974;-85
2023/08/29 10:58:08;;;;;;;;;;;;;;;;;;4914680;29;19991;-86
2023/08/29 11:00:34;;;;;;;;;;;;;;;;;;4906336;29;19931;-86
2023/08/29 11:03:00;;;;;;;;;;;;;;;;;;4911517;29;20303;-85
2023/08/29 11:05:27;;;;;;;;;;;;;;;;;;4906731;29;19931;-88
2023/08/29 11:07:53;;;;;;;;;;;;;;;;;;4914376;29;19937;-90
2023/08/29 11:10:20;;;;;;;;;;;;;;;;;;4905279;29;19931;-85
2023/08/29 11:12:46;;;;;;;;;;;;;;;;;;4906595;29;20506;-85
2023/08/29 11:15:11;;;;;;;;;;;;;;;;;;4905468;29;19938;-84
2023/08/29 11:17:37;;;;;;;;;;;;;;;;;;4910556;29;19934;-85
2023/08/29 11:20:06;;;;;;;;;;;;;;;;;;4906922;29;20357;-87
2023/08/29 11:22:32;;;;;;;;;;;;;;;;;;4907300;29;19934;-87
2023/08/29 11:24:58;;;;;;;;;;;;;;;;;;4901996;29;19998;-86
2023/08/29 11:27:24;;;;;;;;;;;;;;;;;;4910036;29;20395;-85
2023/08/29 11:29:52;;;;;;;;;;;;;;;;;;4907932;29;19934;-86
2023/08/29 11:32:19;;;;;;;;;;;;;;;;;;4908359;29;19930;-85
2023/08/29 11:34:50;;;;;;;;;;;;;;;;;;4903706;29;20001;-87
2023/08/29 11:37:16;;;;;;;;;;;;;;;;;;4903509;29;19930;-86
2023/08/29 11:39:42;;;;;;;;;;;;;;;;;;4904339;29;19937;-84
2023/08/29 11:42:11;;;;;;;;;;;;;;;;;;4901861;29;19935;-85
2023/08/29 11:44:37;;;;;;;;;;;;;;;;;;4909210;29;19934;-86
2023/08/29 11:47:03;;;;;;;;;;;;;;;;;;4903519;29;19931;-87
2023/08/29 11:49:30;;;;;;;;;;;;;;;;;;4888627;29;20062;-86
2023/08/29 11:51:56;;;;;;;;;;;;;;;;;;4921663;29;20000;-87
2023/08/29 11:54:22;;;;;;;;;;;;;;;;;;4920958;29;19958;-87
2023/08/29 11:56:48;;;;;;;;;;;;;;;;;;4910149;29;20287;-84
2023/08/29 11:59:14;;;;;;;;;;;;;;;;;;4911338;29;20695;-85
2023/08/29 12:01:40;;;;;;;;;;;;;;;;;;4906772;29;19993;-87
2023/08/29 12:04:06;;;;;;;;;;;;;;;;;;4904625;29;20065;-86
2023/08/29 12:06:34;;;;;;;;;;;;;;;;;;4903000;29;20450;-87
2023/08/29 12:09:07;;;;;;;;;;;;;;;;;;4923267;29;19988;-88
2023/08/29 12:11:33;;;;;;;;;;;;;;;;;;4906644;29;20369;-88
2023/08/29 12:14:08;;;;;;;;;;;;;;;;;;4906440;29;19973;-86
2023/08/29 12:25:46;;;;;;;;;;;;;;;;;;4972944;23;20340;-87
2023/08/29 12:28:13;;;;;;;;;;;;;;;;;;4966796;28;20408;-89
2023/08/29 12:30:39;;;;;;;;;;;;;;;;;;4986351;28;20524;-89
2023/08/29 12:33:05;;;;;;;;;;;;;;;;;;4959483;28;20020;-88
2023/08/29 12:35:31;;;;;;;;;;;;;;;;;;4964576;28;20385;-88
2023/08/29 12:38:00;;;;;;;;;;;;;;;;;;4953882;28;19933;-89
2023/08/29 12:40:26;;;;;;;;;;;;;;;;;;4965616;28;19937;-88
2023/08/29 12:42:52;;;;;;;;;;;;;;;;;;4968387;28;19937;-89
2023/08/29 12:45:18;;;;;;;;;;;;;;;;;;4948535;28;19925;-87
2023/08/29 12:47:47;;;;;;;;;;;;;;;;;;4948207;28;19926;-88
2023/08/29 12:50:13;;;;;;;;;;;;;;;;;;4948363;28;19930;-89
2023/08/29 12:52:39;;;;;;;;;;;;;;;;;;4967742;28;19976;-88
2023/08/29 12:55:05;;;;;;;;;;;;;;;;;;4965670;28;20409;-88
2023/08/29 12:57:31;;;;;;;;;;;;;;;;;;4965440;28;20479;-90
2023/08/29 12:59:57;;;;;;;;;;;;;;;;;;4942676;28;19934;-89
2023/08/29 13:02:26;;;;;;;;;;;;;;;;;;4967132;28;20291;-88
2023/08/29 13:04:52;;;;;;;;;;;;;;;;;;4947832;28;19930;-88
2023/08/29 13:07:18;;;;;;;;;;;;;;;;;;4959428;28;20420;-88
2023/08/29 13:09:45;;;;;;;;;;;;;;;;;;4963670;28;19933;-88
2023/08/29 13:12:14;;;;;;;;;;;;;;;;;;4964814;28;20577;-88
2023/08/29 13:14:43;;;;;;;;;;;;;;;;;;4967925;28;19929;-90
2023/08/29 13:17:09;;;;;;;;;;;;;;;;;;4949254;28;19961;-88
2023/08/29 13:19:34;;;;;;;;;;;;;;;;;;4968464;28;19929;-90
2023/08/29 13:22:00;;;;;;;;;;;;;;;;;;4946913;28;19936;-91
2023/08/29 13:24:27;;;;;;;;;;;;;;;;;;4944795;28;20313;-88
2023/08/29 13:26:53;;;;;;;;;;;;;;;;;;4945988;28;19930;-88
2023/08/29 13:29:19;;;;;;;;;;;;;;;;;;4959034;28;19930;-88
2023/08/29 13:31:45;;;;;;;;;;;;;;;;;;4948622;28;19933;-90
2023/08/29 13:34:11;;;;;;;;;;;;;;;;;;4966765;28;19930;-90
2023/08/29 13:36:37;;;;;;;;;;;;;;;;;;4950922;28;19932;-88
2023/08/29 13:39:07;;;;;;;;;;;;;;;;;;4967868;28;20343;-90
2023/08/29 13:41:33;;;;;;;;;;;;;;;;;;4985184;28;20018;-88
2023/08/29 13:43:59;;;;;;;;;;;;;;;;;;4982033;28;20021;-89
2023/08/29 13:46:26;;;;;;;;;;;;;;;;;;4983309;28;19930;-88
2023/08/29 13:48:52;;;;;;;;;;;;;;;;;;4964237;28;19930;-89
2023/08/29 13:51:18;;;;;;;;;;;;;;;;;;4965251;28;19932;-88
2023/08/29 13:53:44;;;;;;;;;;;;;;;;;;4952503;28;20365;-89
2023/08/29 13:56:10;;;;;;;;;;;;;;;;;;4950579;28;19936;-88
2023/08/29 13:58:35;;;;;;;;;;;;;;;;;;4952217;28;19933;-88
2023/08/29 14:01:02;;;;;;;;;;;;;;;;;;4951288;28;20140;-87
2023/08/29 14:03:29;;;;;;;;;;;;;;;;;;4948910;28;19929;-86
2023/08/29 14:05:56;;;;;;;;;;;;;;;;;;4949045;28;19937;-86
2023/08/29 14:08:22;;;;;;;;;;;;;;;;;;4948393;28;20290;-87
2023/08/29 14:10:48;;;;;;;;;;;;;;;;;;4964904;28;19925;-86
2023/08/29 14:13:14;;;;;;;;;;;;;;;;;;4966161;28;20416;-85
2023/08/29 14:15:39;;;;;;;;;;;;;;;;;;4950498;28;20004;-86
2023/08/29 14:18:05;;;;;;;;;;;;;;;;;;4968511;28;19934;-86
2023/08/29 14:20:34;;;;;;;;;;;;;;;;;;4950910;28;20016;-87
2023/08/29 14:23:01;;;;;;;;;;;;;;;;;;4967310;28;19926;-86
2023/08/29 14:25:29;;;;;;;;;;;;;;;;;;4951612;28;19926;-88
2023/08/29 14:27:59;;;;;;;;;;;;;;;;;;4951113;28;19945;-88
2023/08/29 14:30:25;;;;;;;;;;;;;;;;;;4951859;28;19973;-89
2023/08/29 14:32:52;;;;;;;;;;;;;;;;;;4967502;28;20008;-88
2023/08/29 14:35:20;;;;;;;;;;;;;;;;;;4948932;28;20031;-87
2023/08/29 14:37:46;;;;;;;;;;;;;;;;;;4966376;28;19973;-89
2023/08/29 14:40:11;;;;;;;;;;;;;;;;;;4948006;28;19930;-88
2023/08/29 14:42:37;;;;;;;;;;;;;;;;;;4967126;28;20015;-88
2023/08/29 14:45:03;;;;;;;;;;;;;;;;;;4965903;28;19937;-88
2023/08/29 14:47:29;;;;;;;;;;;;;;;;;;4965888;28;19930;-88
2023/08/29 14:49:58;;;;;;;;;;;;;;;;;;4950771;28;19937;-87
2023/08/29 14:52:25;;;;;;;;;;;;;;;;;;4947999;28;19930;-89
2023/08/29 14:54:53;;;;;;;;;;;;;;;;;;4963389;28;19925;-88
2023/08/29 14:57:18;;;;;;;;;;;;;;;;;;4964494;28;19930;-89
2023/08/29 14:59:44;;;;;;;;;;;;;;;;;;4963264;28;19936;-88
2023/08/29 15:02:10;;;;;;;;;;;;;;;;;;4967425;28;20396;-87
2023/08/29 15:04:36;;;;;;;;;;;;;;;;;;4964794;28;19929;-89
2023/08/29 15:07:02;;;;;;;;;;;;;;;;;;4949840;28;19929;-87
2023/08/29 15:09:28;;;;;;;;;;;;;;;;;;4967327;28;19930;-88
2023/08/29 15:11:54;;;;;;;;;;;;;;;;;;4965458;28;19922;-88
2023/08/29 15:14:20;;;;;;;;;;;;;;;;;;4951130;28;19930;-87
2023/08/29 15:16:46;;;;;;;;;;;;;;;;;;4966970;28;19929;-88
2023/08/29 15:19:12;;;;;;;;;;;;;;;;;;4947931;28;19999;-88
2023/08/29 15:21:38;;;;;;;;;;;;;;;;;;4964344;28;20271;-88
2023/08/29 15:24:04;;;;;;;;;;;;;;;;;;4963273;28;19930;-88
2023/08/29 15:26:30;;;;;;;;;;;;;;;;;;4962730;28;20397;-88
2023/08/29 15:28:56;;;;;;;;;;;;;;;;;;4947713;28;19929;-88
2023/08/29 15:31:22;;;;;;;;;;;;;;;;;;4964084;28;19992;-88
2023/08/29 15:33:48;;;;;;;;;;;;;;;;;;4948110;28;19929;-88
2023/08/29 15:36:14;;;;;;;;;;;;;;;;;;4963299;28;20392;-87
2023/08/29 15:38:40;;;;;;;;;;;;;;;;;;4947842;28;20060;-89
2023/08/29 15:41:06;;;;;;;;;;;;;;;;;;4947964;28;20040;-87
2023/08/29 15:43:32;;;;;;;;;;;;;;;;;;4963173;28;19937;-88
2023/08/29 15:45:58;;;;;;;;;;;;;;;;;;4964480;28;19933;-89
2023/08/29 15:48:24;;;;;;;;;;;;;;;;;;4964630;28;20425;-88
2023/08/29 15:50:50;;;;;;;;;;;;;;;;;;4980072;28;20462;-88
2023/08/29 15:53:16;;;;;;;;;;;;;;;;;;4962513;28;20867;-88
2023/08/29 15:55:45;;;;;;;;;;;;;;;;;;4943542;28;19993;-87
2023/08/29 15:58:13;;;;;;;;;;;;;;;;;;4947761;28;19937;-88
2023/08/29 16:00:39;;;;;;;;;;;;;;;;;;4963227;28;20401;-88
2023/08/29 16:03:08;;;;;;;;;;;;;;;;;;4960826;28;19929;-88
2023/08/29 16:05:34;;;;;;;;;;;;;;;;;;4960956;28;20442;-89
2023/08/29 16:08:01;;;;;;;;;;;;;;;;;;4944111;28;20032;-88
2023/08/29 16:10:27;;;;;;;;;;;;;;;;;;4948262;28;20397;-90
2023/08/29 16:12:53;;;;;;;;;;;;;;;;;;4964790;28;19930;-88
2023/08/29 16:15:18;;;;;;;;;;;;;;;;;;4961853;28;20451;-88
2023/08/29 16:17:44;;;;;;;;;;;;;;;;;;4958065;28;20016;-87
2023/08/29 16:20:11;;;;;;;;;;;;;;;;;;4941817;28;19930;-87
2023/08/29 16:22:40;;;;;;;;;;;;;;;;;;4962849;28;19986;-89
2023/08/29 16:25:06;;;;;;;;;;;;;;;;;;4950399;28;20017;-88
2023/08/29 16:27:32;;;;;;;;;;;;;;;;;;4959983;28;20519;-88
2023/08/29 16:29:58;;;;;;;;;;;;;;;;;;4955390;28;20055;-88
2023/08/29 16:32:24;;;;;;;;;;;;;;;;;;4947331;28;19926;-88
2023/08/29 16:34:59;;;;;;;;;;;;;;;;;;4972662;28;20481;-88
2023/08/29 16:37:25;;;;;;;;;;;;;;;;;;4956124;28;19933;-88
2023/08/29 16:39:51;;;;;;;;;;;;;;;;;;4959011;28;19930;-88
2023/08/29 16:42:17;;;;;;;;;;;;;;;;;;4944674;28;19953;-88
2023/08/29 16:44:43;;;;;;;;;;;;;;;;;;4959898;28;20390;-87
2023/08/29 16:47:09;;;;;;;;;;;;;;;;;;4946997;28;19978;-88
2023/08/29 16:49:35;;;;;;;;;;;;;;;;;;4961277;28;19934;-87
2023/08/29 16:52:05;;;;;;;;;;;;;;;;;;4944363;28;20266;-87
2023/08/29 16:54:31;;;;;;;;;;;;;;;;;;4943520;28;19934;-87
2023/08/29 16:56:56;;;;;;;;;;;;;;;;;;4962633;28;19980;-86
2023/08/29 16:59:23;;;;;;;;;;;;;;;;;;4957139;28;20220;-89
2023/08/29 17:01:49;;;;;;;;;;;;;;;;;;4964013;28;19930;-87
2023/08/29 17:04:15;;;;;;;;;;;;;;;;;;4946938;28;19945;-90
2023/08/29 17:06:40;;;;;;;;;;;;;;;;;;4947078;28;19930;-87